IN-0014 weather

CLOSED Koirengei Airstrip
Manipur, India

Public forecast

Using degrees Celsius for public forecast. Weather courtesy of forecast.io.

METAR (pilot weather report)

Closest report is Imphal Airport, 6.9 nm (12.8 km) SSW. Retrieved 2019/08/24 11:00 UTC (5 minutes ago):

VEIM 241100Z 12006KT 5000 HZ SCT018 BKN100 25/21 Q1007 NOSIG

TAF (pilot weather forecast)

Forecast is more than 12 hours old.

Closest forecast is Imphal Airport, 6.9 nm (12.8 km) SSW. Retrieved 2017/12/28 12:00 UTC (2 years ago):

TAF VEIM 281100Z 2812/2821 06006KT 4000 BR FEW020 BECMG 2815/2817 00000KT 2000 BR